• Join FlightAware (Why Join?)
  • Login
  • US Flag 
01:01AM EDT


 

Airport Tracker/Info


-or-


 

Live Flight TrackerFlight Track Log ✈ TAM3519 ✈ 22-May-2013 ✈ SBBR / BSB - SBVT / VIX

Flight Track Log - Related Links

Times and Time Zones

All times are in EDT time to prevent confusion due to time zone crossing. See the TAM3519 flight status page for this flight to view local times or setup timezone preferences in your user account.

Time Position Orientation Groundspeed Altitude Reporting Facility
EDT Latitude Longitude Course Direction KTS MPH feet Rate Location/Type
08:50PM -16.7645 -46.4180 122° Southeast  Level Estimated
08:51PM -16.8093 -46.3429 122° Southeast  Level Estimated
08:52PM -16.8541 -46.2678 122° Southeast  Level Estimated
08:53PM -16.8988 -46.1926 122° Southeast  Level Estimated
08:54PM -16.9436 -46.1174 122° Southeast  Level Estimated
08:55PM -16.9883 -46.0421 122° Southeast  Level Estimated
08:56PM -17.0329 -45.9669 122° Southeast  Level Estimated
08:57PM -17.0776 -45.8915 122° Southeast  Level Estimated
08:58PM -17.1222 -45.8162 122° Southeast  Level Estimated
08:59PM -17.1668 -45.7408 122° Southeast  Level Estimated
09:00PM -17.2114 -45.6654 122° Southeast  Level Estimated
09:01PM -17.2559 -45.5899 122° Southeast  Level Estimated
09:02PM -17.3004 -45.5144 122° Southeast  Level Estimated
09:03PM -17.3449 -45.4389 122° Southeast  Level Estimated
09:04PM -17.3894 -45.3633 122° Southeast  Level Estimated
09:05PM -17.4338 -45.2877 122° Southeast  Level Estimated
09:06PM -17.4782 -45.2121 122° Southeast  Level Estimated
09:07PM -17.5226 -45.1364 122° Southeast  Level Estimated
09:08PM -17.5669 -45.0607 122° Southeast  Level Estimated
09:09PM -17.6112 -44.9850 122° Southeast  Level Estimated
09:10PM -17.6555 -44.9092 122° Southeast  Level Estimated
09:11PM -17.6997 -44.8333 121° Southeast  Level Estimated
09:12PM -17.7440 -44.7575 121° Southeast  Level Estimated
09:13PM -17.7882 -44.6816 121° Southeast  Level Estimated
09:14PM -17.8323 -44.6056 121° Southeast  Level Estimated
09:15PM -17.8764 -44.5297 121° Southeast  Level Estimated
09:16PM -17.9206 -44.4536 121° Southeast  Level Estimated
09:17PM -17.9646 -44.3776 121° Southeast  Level Estimated
09:18PM -18.0087 -44.3015 121° Southeast  Level Estimated
09:19PM -18.0527 -44.2254 121° Southeast  Level Estimated
09:20PM -18.0967 -44.1492 121° Southeast  Level Estimated
09:21PM -18.1407 -44.0730 121° Southeast  Level Estimated
09:22PM -18.1846 -43.9968 121° Southeast  Level Estimated
09:23PM -18.2285 -43.9205 121° Southeast  Level Estimated
09:24PM -18.2724 -43.8442 121° Southeast  Level Estimated
09:25PM -18.3162 -43.7678 121° Southeast  Level Estimated
09:26PM -18.3600 -43.6914 121° Southeast  Level Estimated
09:27PM -18.4038 -43.6150 121° Southeast  Level Estimated
09:28PM -18.4475 -43.5385 121° Southeast  Level Estimated
09:29PM -18.4912 -43.4620 121° Southeast  Level Estimated
09:30PM -18.5349 -43.3854 121° Southeast  Level Estimated
09:31PM -18.5786 -43.3088 121° Southeast  Level Estimated
09:32PM -18.6222 -43.2322 121° Southeast  Level Estimated
09:33PM -18.6658 -43.1555 121° Southeast  Level Estimated
09:34PM -18.7093 -43.0788 121° Southeast  Level Estimated
09:35PM -18.7529 -43.0021 121° Southeast  Level Estimated
09:36PM -18.7964 -42.9253 121° Southeast  Level Estimated
09:37PM -18.8398 -42.8484 121° Southeast  Level Estimated
09:38PM -18.8833 -42.7716 121° Southeast  Level Estimated
09:39PM -18.9267 -42.6947 121° Southeast  Level Estimated
09:40PM -18.9700 -42.6177 121° Southeast  Level Estimated
09:41PM -19.0134 -42.5407 121° Southeast  Level Estimated
09:42PM -19.0567 -42.4637 121° Southeast  Level Estimated
09:43PM -19.1000 -42.3866 121° Southeast  Level Estimated
09:44PM -19.1432 -42.3095 121° Southeast  Level Estimated
09:45PM -19.1864 -42.2324 121° Southeast  Level Estimated
09:46PM -19.2296 -42.1552 121° Southeast  Level Estimated
09:47PM -19.2728 -42.0779 121° Southeast  Level Estimated
09:48PM -19.3159 -42.0007 121° Southeast  Level Estimated
09:49PM -19.3589 -41.9234 121° Southeast  Level Estimated
09:50PM -19.4020 -41.8460 121° Southeast  Level Estimated
09:51PM -19.4450 -41.7686 121° Southeast  Level Estimated
09:52PM -19.4880 -41.6912 120° Southeast  Level Estimated
09:53PM -19.5309 -41.6137 120° Southeast  Level Estimated
09:54PM -19.5739 -41.5362 120° Southeast  Level Estimated
09:55PM -19.6167 -41.4586 120° Southeast  Level Estimated
09:56PM -19.6596 -41.3810 120° Southeast  Level Estimated
09:57PM -19.7024 -41.3034 120° Southeast  Level Estimated
09:58PM -19.7452 -41.2257 120° Southeast  Level Estimated
09:59PM -19.7879 -41.1480 120° Southeast  Level Estimated
10:00PM -19.8307 -41.0702 120° Southeast  Level Estimated
10:01PM -19.8733 -40.9924 120° Southeast  Level Estimated
10:02PM -19.9160 -40.9146 120° Southeast  Level Estimated
10:03PM -19.9586 -40.8367 120° Southeast  Level Estimated
10:04PM -20.0012 -40.7587 120° Southeast  Level Estimated
10:05PM -20.0437 -40.6808 120° Southeast  Level Estimated
10:06PM -20.0863 -40.6027 120° Southeast  Level Estimated
10:07PM -20.1287 -40.5247 120° Southeast  Level Estimated
10:08PM -20.1712 -40.4466 120° Southeast  Level Estimated
10:09PM -20.2136 -40.3684 120° Southeast  Level Estimated
10:10PM -20.2560 -40.2902 120° Southeast  Level Estimated
10:11PM -20.2581 -40.2864 120° Southeast  Level Estimated
10:12PM -20.2581 -40.2864 13° North  Level Estimated
10:13PM -20.2581 -40.2864 13° North  Level Estimated
10:14PM -20.2581 -40.2864 13° North  Level Estimated
10:15PM -20.2581 -40.2864 13° North  Level Estimated
10:16PM -20.2581 -40.2864 13° North  Level Estimated
10:17PM -20.2581 -40.2864 13° North  Level Estimated
10:18PM -20.2581 -40.2864 13° North  Level Estimated
10:19PM -20.2581 -40.2864 13° North  Level Estimated
10:20PM -20.2581 -40.2864 13° North  Level Estimated
10:21PM -20.2581 -40.2864 13° North  Level Estimated
10:22PM -20.2581 -40.2864 13° North  Level Estimated
10:23PM -20.2581 -40.2864 13° North  Level Estimated
10:24PM -20.2581 -40.2864 13° North  Level Estimated
10:25PM -20.2581 -40.2864 13° North  Level Estimated
10:26PM -20.2581 -40.2864 13° North  Level Estimated